Portada
METAR-TAF:

METAR-TAF

Aeroports :

Phetchabun, Tailàndia

latitud: 16-40-33N, longitud: 101-11-42E, altitud: 137 m

Observació

L'informe es va fer fa 2 hores i 9 minuts, a les 11:00 UTC
Vent 3 kt del Est/Nord-Est
Temperatura 29°C
Humitat 58%
Pressió 1012 hPa
Visibilitat 10 km o més
Núvols disperses a una alçada de 3000 ft
Cel ennuvolat a una alçada de 8000 ft

METAR: VTPB 111100Z 07003KT 9999 SCT030 BKN080 29/20 Q1012 NOSIG

Hora: 20:09 (13:09 UTC)

Pronòstic

L'informe es va fer fa 2 hores i 9 minuts, a les 11:00 UTC
Pronòstic vàlid del 11 a les 12 UTC al 12 a les 12 UTC
Vent 6 kt del Nord
Visibilitat 10 km o més
Núvols disperses a una alçada de 2500 ft

TAF: VTPB 111100Z 1112/1212 36006KT 9999 SCT025

Observacions i pronòstics meteorològics de més de 4000 aeroports (METAR i TAF).

Les estacions disponibles són els punts grocs i vermells al mapa.

Posi el ratolí al punt desitjat per veure el nom de l'estació.

Feu clic per veure les observacions i els pronòstics meteorològics.

Per canviar el mapa: feu clic els botons verds amb una creu de color negre per apropar; al botó verd amb un guió per allunyar la imatge; o en les fletxes verdes per a mapes adjacents.


METAR-TAF: